Wetterdaten: Woche 03.07.17 - 09.07.17 (KW27)
Datum Zeit Temp. A. Feuchte A. Luftdruck Regen Wind Richtung Taupunkt Windchill Windben
03.07.2017 00:00 18,7 C 74 % 1016,2 hPa 0,0 l/m 6,1 km/h N 13,8 C 18,5 C 17,3 km/h
03.07.2017 01:00 18,7 C 72 % 1016,3 hPa 0,0 l/m 8,5 km/h N 13,5 C 17,8 C 23,7 km/h
03.07.2017 02:00 18,6 C 72 % 1016,8 hPa 0,0 l/m 6,1 km/h N 13,5 C 18,5 C 18,9 km/h
03.07.2017 03:00 18,3 C 74 % 1016,8 hPa 0,0 l/m 5,6 km/h N 13,5 C 18,0 C 17,7 km/h
03.07.2017 04:00 18,3 C 73 % 1016,9 hPa 0,0 l/m 6,9 km/h N 13,4 C 17,9 C 22,5 km/h
03.07.2017 05:00 17,5 C 77 % 1017,3 hPa 0,0 l/m 7,0 km/h N 13,4 C 17,0 C 19,7 km/h
03.07.2017 06:00 17,0 C 80 % 1018,1 hPa 0,0 l/m 7,6 km/h N 13,5 C 16,4 C 22,9 km/h
03.07.2017 07:00 16,1 C 81 % 1019,0 hPa 0,0 l/m 4,4 km/h N 12,8 C 16,1 C 16,5 km/h
03.07.2017 08:00 17,2 C 80 % 1019,3 hPa 0,0 l/m 8,1 km/h N 13,6 C 16,4 C 20,5 km/h
03.07.2017 09:00 18,7 C 74 % 1019,6 hPa 0,0 l/m 9,2 km/h N 14,0 C 17,6 C 24,5 km/h
03.07.2017 10:00 19,5 C 70 % 1019,8 hPa 0,0 l/m 5,7 km/h N 13,9 C 19,5 C 18,9 km/h
03.07.2017 11:00 20,0 C 69 % 1019,4 hPa 0,0 l/m 6,8 km/h N 14,1 C 19,7 C 20,5 km/h
03.07.2017 12:00 21,4 C 61 % 1019,1 hPa 0,0 l/m 8,1 km/h N 13,4 C 20,8 C 21,7 km/h
03.07.2017 13:00 22,3 C 55 % 1019,0 hPa 0,0 l/m 8,1 km/h N 12,9 C 21,7 C 26,6 km/h
03.07.2017 14:00 22,7 C 52 % 1018,7 hPa 0,0 l/m 10,3 km/h N 12,3 C 21,6 C 27,0 km/h
03.07.2017 15:00 22,8 C 52 % 1018,3 hPa 0,0 l/m 6,8 km/h N 12,3 C 22,6 C 19,7 km/h
03.07.2017 16:00 23,2 C 53 % 1018,1 hPa 0,0 l/m 6,0 km/h N 13,0 C 23,0 C 19,7 km/h
03.07.2017 17:00 23,7 C 53 % 1018,2 hPa 0,0 l/m 5,0 km/h N 13,5 C 23,7 C 22,5 km/h
03.07.2017 18:00 24,0 C 53 % 1018,0 hPa 0,0 l/m 5,1 km/h N 13,8 C 24,0 C 21,3 km/h
03.07.2017 19:00 23,1 C 50 % 1018,0 hPa 0,0 l/m 5,7 km/h N 12,2 C 22,9 C 20,1 km/h
03.07.2017 20:00 22,0 C 53 % 1018,2 hPa 0,0 l/m 6,1 km/h N 12,1 C 22,0 C 20,5 km/h
03.07.2017 21:00 20,8 C 55 % 1018,5 hPa 0,0 l/m 3,4 km/h N 11,4 C 20,8 C 11,3 km/h
03.07.2017 22:00 20,6 C 56 % 1018,8 hPa 0,0 l/m 3,4 km/h N 11,5 C 20,6 C 14,9 km/h
03.07.2017 23:00 19,5 C 60 % 1018,9 hPa 0,0 l/m 0,1 km/h N 11,5 C 19,5 C 2,8 km/h
04.07.2017 00:00 17,0 C 67 % 1019,1 hPa 0,0 l/m 0,0 km/h N 10,9 C 17,0 C 0,4 km/h
04.07.2017 01:00 15,2 C 74 % 1019,1 hPa 0,0 l/m 0,0 km/h N 10,6 C 15,2 C 0,4 km/h
04.07.2017 02:00 14,0 C 78 % 1019,0 hPa 0,0 l/m 0,0 km/h N 10,3 C 14,0 C 0,4 km/h
04.07.2017 03:00 13,4 C 80 % 1019,1 hPa 0,0 l/m 0,0 km/h N 10,0 C 13,4 C 2,0 km/h
04.07.2017 04:00 13,0 C 81 % 1018,9 hPa 0,0 l/m 0,0 km/h N 9,8 C 13,0 C 0,4 km/h
04.07.2017 05:00 13,0 C 82 % 1018,9 hPa 0,0 l/m 0,0 km/h N 10,0 C 13,0 C 0,8 km/h
04.07.2017 06:00 13,6 C 82 % 1018,9 hPa 0,0 l/m 0,0 km/h N 10,6 C 13,6 C 0,4 km/h
04.07.2017 07:00 15,4 C 82 % 1019,0 hPa 0,0 l/m 0,0 km/h N 12,2 C 15,4 C 0,4 km/h
04.07.2017 08:00 19,4 C 71 % 1018,8 hPa 0,0 l/m 0,7 km/h N 13,9 C 19,4 C 7,7 km/h
04.07.2017 09:00 23,5 C 54 % 1018,8 hPa 0,0 l/m 5,1 km/h N 13,6 C 23,4 C 20,5 km/h
04.07.2017 10:00 24,1 C 53 % 1018,7 hPa 0,0 l/m 7,1 km/h N 13,9 C 23,9 C 24,1 km/h
04.07.2017 11:00 24,8 C 49 % 1018,6 hPa 0,0 l/m 10,0 km/h N 13,2 C 23,9 C 27,0 km/h
04.07.2017 12:00 25,6 C 46 % 1018,2 hPa 0,0 l/m 12,2 km/h N 13,2 C 24,4 C 31,4 km/h
04.07.2017 13:00 25,6 C 45 % 1017,8 hPa 0,0 l/m 12,6 km/h N 12,6 C 24,4 C 31,0 km/h
04.07.2017 14:00 25,2 C 48 % 1018,0 hPa 0,0 l/m 8,8 km/h N 13,4 C 24,6 C 26,1 km/h
04.07.2017 15:00 25,3 C 46 % 1018,0 hPa 0,0 l/m 5,2 km/h N 12,8 C 25,3 C 19,3 km/h
04.07.2017 16:00 23,9 C 51 % 1018,4 hPa 0,0 l/m 1,7 km/h N 13,1 C 23,9 C 11,7 km/h
04.07.2017 17:00 23,8 C 50 % 1018,2 hPa 0,0 l/m 2,9 km/h N 12,8 C 23,8 C 12,1 km/h
04.07.2017 18:00 23,9 C 50 % 1017,9 hPa 0,0 l/m 0,8 km/h N 12,9 C 23,9 C 7,6 km/h
04.07.2017 19:00 23,8 C 51 % 1017,8 hPa 0,0 l/m 0,9 km/h N 12,9 C 23,8 C 6,4 km/h
04.07.2017 20:00 23,6 C 50 % 1017,8 hPa 0,0 l/m 0,3 km/h N 12,5 C 23,6 C 4,4 km/h
04.07.2017 21:00 22,3 C 56 % 1018,5 hPa 0,0 l/m 0,1 km/h N 13,0 C 22,3 C 2,0 km/h
04.07.2017 22:00 20,0 C 63 % 1019,0 hPa 0,0 l/m 0,0 km/h N 12,6 C 20,0 C 0,0 km/h
04.07.2017 23:00 18,2 C 68 % 1019,3 hPa 0,0 l/m 0,0 km/h N 12,0 C 18,2 C 0,0 km/h
05.07.2017 00:00 17,0 C 71 % 1019,3 hPa 0,0 l/m 0,0 km/h N 11,7 C 17,0 C 0,4 km/h
05.07.2017 01:00 16,2 C 74 % 1019,1 hPa 0,0 l/m 0,0 km/h N 11,5 C 16,2 C 0,4 km/h
05.07.2017 02:00 15,6 C 76 % 1019,0 hPa 0,0 l/m 0,0 km/h N 11,3 C 15,6 C 0,8 km/h
05.07.2017 03:00 14,9 C 77 % 1019,0 hPa 0,0 l/m 0,0 km/h N 10,9 C 14,9 C 0,0 km/h
05.07.2017 04:00 14,3 C 79 % 1018,7 hPa 0,0 l/m 0,0 km/h N 10,6 C 14,3 C 0,8 km/h
05.07.2017 05:00 13,7 C 81 % 1018,5 hPa 0,0 l/m 0,0 km/h N 10,4 C 13,7 C 0,8 km/h
05.07.2017 06:00 13,9 C 81 % 1018,6 hPa 0,0 l/m 0,0 km/h N 10,7 C 13,9 C 0,0 km/h
05.07.2017 07:00 15,6 C 80 % 1018,4 hPa 0,0 l/m 0,0 km/h N 12,2 C 15,6 C 0,4 km/h
05.07.2017 08:00 19,6 C 72 % 1018,3 hPa 0,0 l/m 0,0 km/h N 14,3 C 19,6 C 0,8 km/h
05.07.2017 09:00 25,0 C 53 % 1017,7 hPa 0,0 l/m 0,6 km/h N 14,5 C 25,0 C 6,0 km/h
05.07.2017 10:00 28,4 C 44 % 1017,3 hPa 0,0 l/m 0,8 km/h N 14,8 C 28,4 C 6,4 km/h
05.07.2017 11:00 30,5 C 40 % 1016,9 hPa 0,0 l/m 0,4 km/h N 15,5 C 30,5 C 4,8 km/h
05.07.2017 12:00 31,1 C 38 % 1016,3 hPa 0,0 l/m 0,7 km/h N 14,9 C 31,1 C 6,4 km/h
05.07.2017 13:00 30,0 C 41 % 1015,8 hPa 0,0 l/m 1,1 km/h N 15,3 C 30,0 C 7,6 km/h
05.07.2017 14:00 32,2 C 37 % 1014,9 hPa 0,0 l/m 0,9 km/h N 15,7 C 32,2 C 8,0 km/h
05.07.2017 15:00 31,6 C 38 % 1014,4 hPa 0,0 l/m 0,6 km/h N 15,7 C 31,6 C 4,0 km/h
05.07.2017 16:00 30,5 C 38 % 1013,9 hPa 0,0 l/m 0,5 km/h N 14,5 C 30,5 C 4,4 km/h
05.07.2017 17:00 31,3 C 32 % 1013,5 hPa 0,0 l/m 2,6 km/h N 12,7 C 31,3 C 14,9 km/h
05.07.2017 18:00 32,1 C 32 % 1013,2 hPa 0,0 l/m 3,2 km/h N 13,1 C 32,1 C 14,9 km/h
05.07.2017 19:00 31,9 C 34 % 1013,0 hPa 0,0 l/m 0,6 km/h N 13,9 C 31,9 C 4,8 km/h
05.07.2017 20:00 29,3 C 41 % 1013,0 hPa 0,0 l/m 0,9 km/h N 14,6 C 29,3 C 6,4 km/h
05.07.2017 21:00 26,2 C 48 % 1013,2 hPa 0,0 l/m 0,2 km/h N 14,3 C 26,2 C 1,6 km/h
05.07.2017 22:00 23,6 C 53 % 1013,6 hPa 0,0 l/m 0,1 km/h N 13,4 C 23,6 C 1,6 km/h
05.07.2017 23:00 22,0 C 57 % 1014,2 hPa 0,0 l/m 0,0 km/h N 13,0 C 22,0 C 0,0 km/h
06.07.2017 00:00 20,7 C 64 % 1014,4 hPa 0,0 l/m 0,1 km/h N 13,7 C 20,7 C 2,0 km/h
06.07.2017 01:00 22,3 C 59 % 1014,4 hPa 0,0 l/m 0,7 km/h N 13,7 C 22,3 C 3,2 km/h
06.07.2017 02:00 20,6 C 65 % 1015,2 hPa 0,0 l/m 0,1 km/h N 13,7 C 20,6 C 1,6 km/h
06.07.2017 03:00 20,2 C 70 % 1015,9 hPa 0,0 l/m 1,7 km/h N 14,5 C 20,2 C 9,3 km/h
06.07.2017 04:00 19,1 C 75 % 1016,5 hPa 0,0 l/m 1,5 km/h N 14,6 C 19,1 C 8,9 km/h
06.07.2017 05:00 18,1 C 77 % 1017,0 hPa 0,0 l/m 0,8 km/h N 14,1 C 18,1 C 6,0 km/h
06.07.2017 06:00 18,1 C 77 % 1017,5 hPa 0,0 l/m 1,8 km/h N 14,0 C 18,1 C 11,3 km/h
06.07.2017 07:00 19,0 C 74 % 1018,2 hPa 0,0 l/m 3,4 km/h N 14,3 C 19,0 C 11,7 km/h
06.07.2017 08:00 20,7 C 68 % 1018,5 hPa 0,0 l/m 0,8 km/h N 14,6 C 20,7 C 6,0 km/h
06.07.2017 09:00 23,3 C 60 % 1018,6 hPa 0,0 l/m 0,5 km/h N 15,0 C 23,3 C 5,6 km/h
06.07.2017 10:00 24,9 C 55 % 1018,5 hPa 0,0 l/m 1,0 km/h N 15,2 C 24,9 C 7,6 km/h
06.07.2017 11:00 26,4 C 53 % 1018,2 hPa 0,0 l/m 0,8 km/h N 15,9 C 26,4 C 7,6 km/h
06.07.2017 12:00 27,7 C 50 % 1017,7 hPa 0,0 l/m 1,9 km/h N 16,1 C 27,7 C 10,5 km/h
06.07.2017 13:00 28,6 C 47 % 1017,2 hPa 0,0 l/m 1,9 km/h N 16,3 C 28,6 C 12,1 km/h
06.07.2017 14:00 29,6 C 46 % 1016,7 hPa 0,0 l/m 2,5 km/h N 16,9 C 29,6 C 12,9 km/h
06.07.2017 15:00 30,0 C 45 % 1016,3 hPa 0,0 l/m 1,1 km/h N 16,5 C 30,0 C 10,1 km/h
06.07.2017 16:00 29,2 C 46 % 1016,3 hPa 0,0 l/m 0,2 km/h N 16,4 C 29,2 C 2,8 km/h
06.07.2017 17:00 29,5 C 45 % 1016,0 hPa 0,0 l/m 0,6 km/h N 16,2 C 29,5 C 5,6 km/h
06.07.2017 18:00 29,2 C 46 % 1015,7 hPa 0,0 l/m 0,1 km/h N 16,4 C 29,2 C 3,6 km/h
06.07.2017 19:00 28,1 C 48 % 1015,7 hPa 0,0 l/m 0,3 km/h N 16,0 C 28,1 C 5,6 km/h
06.07.2017 20:00 26,8 C 53 % 1015,8 hPa 0,0 l/m 0,0 km/h N 16,3 C 26,8 C 1,2 km/h
06.07.2017 21:00 24,6 C 61 % 1016,2 hPa 0,0 l/m 0,0 km/h N 16,6 C 24,6 C 0,0 km/h
06.07.2017 22:00 22,2 C 69 % 1016,6 hPa 0,0 l/m 0,0 km/h N 16,2 C 22,2 C 0,0 km/h
06.07.2017 23:00 20,6 C 74 % 1016,8 hPa 0,0 l/m 0,0 km/h N 15,7 C 20,6 C 0,0 km/h
07.07.2017 00:00 19,3 C 78 % 1016,8 hPa 0,0 l/m 0,0 km/h N 15,3 C 19,3 C 0,0 km/h
07.07.2017 01:00 18,5 C 79 % 1016,7 hPa 0,0 l/m 0,0 km/h N 14,7 C 18,5 C 0,0 km/h
07.07.2017 02:00 17,9 C 80 % 1016,3 hPa 0,0 l/m 0,0 km/h N 14,4 C 17,9 C 0,0 km/h
07.07.2017 03:00 17,2 C 80 % 1015,8 hPa 0,0 l/m 0,0 km/h N 13,7 C 17,2 C 0,0 km/h
07.07.2017 04:00 16,5 C 81 % 1015,7 hPa 0,0 l/m 0,0 km/h N 13,3 C 16,5 C 0,0 km/h
07.07.2017 05:00 16,1 C 82 % 1015,6 hPa 0,0 l/m 0,0 km/h N 12,9 C 16,1 C 0,0 km/h
07.07.2017 06:00 16,4 C 81 % 1015,4 hPa 0,0 l/m 0,0 km/h N 13,2 C 16,4 C 0,0 km/h
07.07.2017 07:00 17,8 C 81 % 1015,3 hPa 0,0 l/m 0,0 km/h N 14,5 C 17,8 C 1,2 km/h
07.07.2017 08:00 21,4 C 74 % 1014,9 hPa 0,0 l/m 0,2 km/h N 16,4 C 21,4 C 3,2 km/h
07.07.2017 09:00 24,8 C 61 % 1015,4 hPa 0,0 l/m 0,6 km/h N 16,8 C 24,8 C 6,4 km/h
07.07.2017 10:00 24,5 C 62 % 1016,8 hPa 0,0 l/m 5,4 km/h N 16,7 C 24,4 C 18,5 km/h
07.07.2017 11:00 24,4 C 64 % 1016,1 hPa 0,0 l/m 1,5 km/h N 17,2 C 24,4 C 8,0 km/h
07.07.2017 12:00 25,6 C 60 % 1016,4 hPa 0,0 l/m 1,8 km/h N 17,3 C 25,6 C 10,4 km/h
07.07.2017 13:00 26,4 C 58 % 1015,5 hPa 0,0 l/m 0,1 km/h N 17,5 C 26,4 C 2,8 km/h
07.07.2017 14:00 27,8 C 53 % 1014,9 hPa 0,0 l/m 0,1 km/h N 17,2 C 27,8 C 2,4 km/h
07.07.2017 15:00 28,6 C 49 % 1014,2 hPa 0,0 l/m 3,8 km/h N 16,8 C 28,6 C 16,9 km/h
07.07.2017 16:00 29,4 C 42 % 1013,1 hPa 0,0 l/m 9,8 km/h N 15,1 C 29,1 C 29,4 km/h
07.07.2017 17:00 30,2 C 39 % 1012,6 hPa 0,0 l/m 7,5 km/h N 14,7 C 30,0 C 27,0 km/h
07.07.2017 18:00 30,9 C 40 % 1012,3 hPa 0,0 l/m 2,4 km/h N 15,6 C 30,9 C 16,5 km/h
07.07.2017 19:00 30,5 C 40 % 1012,1 hPa 0,0 l/m 0,7 km/h N 15,3 C 30,5 C 10,5 km/h
07.07.2017 20:00 29,3 C 42 % 1012,0 hPa 0,0 l/m 0,3 km/h N 15,0 C 29,3 C 6,0 km/h
07.07.2017 21:00 27,1 C 46 % 1012,5 hPa 0,0 l/m 0,0 km/h N 14,4 C 27,1 C 1,6 km/h
07.07.2017 22:00 26,7 C 46 % 1013,0 hPa 0,0 l/m 1,8 km/h N 14,2 C 26,7 C 12,5 km/h
07.07.2017 23:00 27,2 C 47 % 1012,7 hPa 0,0 l/m 3,7 km/h N 14,8 C 27,2 C 16,1 km/h
08.07.2017 00:00 26,2 C 50 % 1013,0 hPa 0,0 l/m 1,6 km/h N 14,9 C 26,2 C 10,5 km/h
08.07.2017 01:00 24,2 C 57 % 1013,1 hPa 0,0 l/m 0,4 km/h N 15,0 C 24,2 C 4,8 km/h
08.07.2017 02:00 23,1 C 62 % 1013,3 hPa 0,0 l/m 0,1 km/h N 15,3 C 23,1 C 1,6 km/h
08.07.2017 03:00 21,1 C 72 % 1013,3 hPa 0,0 l/m 0,0 km/h N 15,9 C 21,1 C 1,2 km/h
08.07.2017 04:00 21,8 C 71 % 1013,1 hPa 0,0 l/m 3,2 km/h N 16,2 C 21,8 C 18,5 km/h
08.07.2017 05:00 23,3 C 63 % 1013,0 hPa 0,0 l/m 9,0 km/h N 15,7 C 22,6 C 27,8 km/h
08.07.2017 06:00 23,8 C 60 % 1012,9 hPa 0,0 l/m 10,8 km/h N 15,6 C 22,7 C 27,0 km/h
08.07.2017 07:00 24,7 C 58 % 1013,1 hPa 0,0 l/m 10,5 km/h N 15,9 C 23,8 C 33,4 km/h
08.07.2017 08:00 25,9 C 56 % 1013,3 hPa 0,0 l/m 10,0 km/h N 16,5 C 25,2 C 25,7 km/h
08.07.2017 09:00 27,1 C 54 % 1013,5 hPa 0,0 l/m 8,9 km/h N 17,0 C 26,7 C 27,8 km/h
08.07.2017 10:00 28,2 C 53 % 1013,4 hPa 0,0 l/m 9,3 km/h N 17,6 C 27,8 C 27,8 km/h
08.07.2017 11:00 29,8 C 51 % 1013,1 hPa 0,0 l/m 5,7 km/h N 18,3 C 29,7 C 21,7 km/h
08.07.2017 12:00 29,9 C 46 % 1012,8 hPa 0,0 l/m 7,9 km/h N 16,9 C 29,7 C 25,8 km/h
08.07.2017 13:00 31,0 C 42 % 1012,3 hPa 0,0 l/m 5,8 km/h N 16,4 C 31,0 C 23,3 km/h
08.07.2017 14:00 28,0 C 55 % 1013,1 hPa 1,6 l/m 9,1 km/h N 17,6 C 27,7 C 25,4 km/h
08.07.2017 15:00 23,0 C 79 % 1013,0 hPa 2,3 l/m 0,3 km/h N 19,1 C 23,0 C 3,2 km/h
08.07.2017 16:00 25,6 C 69 % 1012,4 hPa 0,0 l/m 1,1 km/h N 19,3 C 25,6 C 9,3 km/h
08.07.2017 17:00 28,1 C 55 % 1012,1 hPa 0,0 l/m 2,4 km/h N 18,1 C 28,1 C 11,3 km/h
08.07.2017 18:00 28,4 C 48 % 1012,1 hPa 0,0 l/m 3,9 km/h N 16,3 C 28,4 C 15,7 km/h
08.07.2017 19:00 28,2 C 45 % 1012,3 hPa 0,0 l/m 0,7 km/h N 15,2 C 28,2 C 6,4 km/h
08.07.2017 20:00 27,7 C 49 % 1012,2 hPa 0,0 l/m 1,4 km/h N 15,9 C 27,7 C 10,1 km/h
08.07.2017 21:00 25,8 C 58 % 1012,7 hPa 0,0 l/m 0,5 km/h N 16,8 C 25,8 C 4,0 km/h
08.07.2017 22:00 23,2 C 65 % 1013,1 hPa 0,0 l/m 0,0 km/h N 16,2 C 23,2 C 0,0 km/h
08.07.2017 23:00 21,7 C 68 % 1013,5 hPa 0,0 l/m 0,0 km/h N 15,5 C 21,7 C 0,8 km/h
09.07.2017 00:00 20,8 C 72 % 1013,3 hPa 0,0 l/m 0,0 km/h N 15,6 C 20,8 C 0,4 km/h
09.07.2017 01:00 20,3 C 74 % 1013,3 hPa 0,0 l/m 0,0 km/h N 15,4 C 20,3 C 0,4 km/h
09.07.2017 02:00 20,4 C 73 % 1013,7 hPa 0,0 l/m 0,0 km/h N 15,4 C 20,4 C 0,4 km/h
09.07.2017 03:00 19,7 C 76 % 1013,7 hPa 0,0 l/m 0,0 km/h N 15,3 C 19,7 C 0,0 km/h
09.07.2017 04:00 19,6 C 79 % 1013,6 hPa 0,0 l/m 0,0 km/h N 15,8 C 19,6 C 0,0 km/h
09.07.2017 05:00 19,4 C 78 % 1013,3 hPa 0,0 l/m 0,0 km/h N 15,5 C 19,4 C 0,0 km/h
09.07.2017 06:00 19,2 C 80 % 1013,4 hPa 0,0 l/m 0,0 km/h N 15,7 C 19,2 C 0,0 km/h
09.07.2017 07:00 20,3 C 78 % 1013,5 hPa 0,0 l/m 0,0 km/h N 16,3 C 20,3 C 1,2 km/h
09.07.2017 08:00 23,4 C 69 % 1013,6 hPa 0,0 l/m 0,1 km/h N 17,4 C 23,4 C 2,8 km/h
09.07.2017 09:00 26,5 C 60 % 1013,5 hPa 0,0 l/m 0,2 km/h N 18,0 C 26,5 C 2,8 km/h
09.07.2017 10:00 28,9 C 54 % 1013,5 hPa 0,0 l/m 0,4 km/h N 18,6 C 28,9 C 5,6 km/h
09.07.2017 11:00 30,1 C 52 % 1013,3 hPa 0,0 l/m 0,8 km/h N 19,0 C 30,1 C 6,4 km/h
09.07.2017 12:00 32,4 C 46 % 1012,7 hPa 0,0 l/m 1,0 km/h N 19,3 C 32,4 C 8,0 km/h
09.07.2017 13:00 30,9 C 54 % 1012,5 hPa 0,8 l/m 0,2 km/h N 20,3 C 30,9 C 5,6 km/h
09.07.2017 14:00 27,6 C 61 % 1012,5 hPa 0,0 l/m 1,8 km/h N 19,4 C 27,6 C 10,8 km/h
09.07.2017 15:00 22,5 C 77 % 1014,2 hPa 16,4 l/m 3,3 km/h N 18,2 C 22,5 C 15,3 km/h
09.07.2017 16:00 21,0 C 81 % 1013,6 hPa 2,3 l/m 0,3 km/h N 17,6 C 21,0 C 3,6 km/h
09.07.2017 17:00 21,3 C 81 % 1012,8 hPa 0,0 l/m 0,0 km/h N 17,9 C 21,3 C 2,0 km/h
09.07.2017 18:00 22,5 C 81 % 1012,1 hPa 0,0 l/m 0,0 km/h N 19,1 C 22,5 C 1,2 km/h
09.07.2017 19:00 22,9 C 81 % 1011,3 hPa 0,0 l/m 0,1 km/h N 19,4 C 22,9 C 2,4 km/h
09.07.2017 20:00 22,5 C 81 % 1011,3 hPa 0,0 l/m 0,0 km/h N 19,1 C 22,5 C 1,2 km/h
09.07.2017 21:00 21,9 C 81 % 1011,2 hPa 0,0 l/m 0,0 km/h N 18,5 C 21,9 C 0,4 km/h
09.07.2017 22:00 21,3 C 82 % 1012,1 hPa 1,6 l/m 0,3 km/h N 18,0 C 21,3 C 4,4 km/h
09.07.2017 23:00 20,3 C 81 % 1012,8 hPa 3,9 l/m 1,0 km/h N 16,9 C 20,3 C 6,9 km/h
Min-Datum _ 04.07.17 05.07.17 09.07.17 - 03.07.17 - 04.07.17 04.07.17 04.07.17
_ Min-Zeit 04:45 17:30 21:15 - 23:15 - 04:45 04:45 00:00
Minimum _ 12,8 C 31 % 1011,0 hPa - 0,0 km/h - 9,6 C 12,8 C 0,0 km/h
Max-Datum _ 09.07.17 04.07.17 03.07.17 09.07.17 04.07.17 - 09.07.17 09.07.17 08.07.17
_ Max-Zeit 12:45 05:15 10:15 15:45 13:15 - 13:30 12:45 07:45
Maximum _ 33,4 C 82 % 1019,9 hPa 16,4 l/m 15,0 km/h
N
- 21,9 C 33,4 C 41,8 km/h
N
Durchschnitt _ 23,1 C 62 % 1015,7 hPa #28,9 l/m 2,4 km/h N 14,8 C 23,0 C 9,4 km/h